Time;durP1;ratioP1;P1;durP2;ratioP2;P2;SDS_P1;SDS_P2;PMS_P1;PMS_P2;Temp;Humidity;BMP_temperature;BMP_pressure;BME280_temperature;BME280_humidity;BME280_pressure;Samples;Min_cycle;Max_cycle;Signal;HPM_P1;HPM_P2
2022/01/08 00:02:24;;;;;;;1.48;0.80;;;;;;;;;;4925613;28;20058;-81
2022/01/08 00:04:50;;;;;;;14.23;2.95;;;;;;;;;;4916920;28;20176;-81
2022/01/08 00:07:16;;;;;;;9.93;1.50;;;;;;;;;;4929011;28;20055;-81
2022/01/08 00:09:42;;;;;;;2.88;1.10;;;;;;;;;;4918181;28;20042;-81
2022/01/08 00:12:08;;;;;;;6.53;2.05;;;;;;;;;;4916272;29;20428;-81
2022/01/08 00:14:35;;;;;;;7.38;1.73;;;;;;;;;;4924995;29;20035;-81
2022/01/08 00:17:01;;;;;;;1.85;1.08;;;;;;;;;;4917505;28;20035;-81
2022/01/08 00:19:27;;;;;;;9.13;2.13;;;;;;;;;;4917190;29;20548;-81
2022/01/08 00:21:53;;;;;;;6.80;1.58;;;;;;;;;;4920488;28;20031;-81
2022/01/08 00:24:19;;;;;;;1.48;0.82;;;;;;;;;;4920639;28;20115;-81
2022/01/08 00:26:45;;;;;;;5.30;1.33;;;;;;;;;;4920841;28;20027;-81
2022/01/08 00:29:11;;;;;;;12.85;2.15;;;;;;;;;;4924476;28;20474;-81
2022/01/08 00:31:37;;;;;;;5.97;1.20;;;;;;;;;;4918226;29;20504;-81
2022/01/08 00:34:03;;;;;;;7.03;1.52;;;;;;;;;;4921453;28;20404;-81
2022/01/08 00:36:29;;;;;;;13.35;1.60;;;;;;;;;;4926999;29;20082;-81
2022/01/08 00:38:55;;;;;;;2.97;1.50;;;;;;;;;;4919723;28;20028;-81
2022/01/08 00:41:21;;;;;;;2.42;1.48;;;;;;;;;;4926746;29;20106;-81
2022/01/08 00:43:47;;;;;;;11.68;1.25;;;;;;;;;;4922026;28;20035;-81
2022/01/08 00:46:13;;;;;;;6.72;0.90;;;;;;;;;;4928260;28;20097;-81
2022/01/08 00:48:39;;;;;;;8.60;2.00;;;;;;;;;;4926556;28;20042;-81
2022/01/08 00:51:05;;;;;;;8.60;1.55;;;;;;;;;;4944001;28;20077;-81
2022/01/08 00:53:31;;;;;;;1.85;0.70;;;;;;;;;;4935359;28;20035;-81
2022/01/08 00:55:57;;;;;;;5.93;0.90;;;;;;;;;;4947119;28;20042;-81
2022/01/08 00:58:24;;;;;;;5.78;2.03;;;;;;;;;;4936424;28;20030;-81
2022/01/08 01:00:50;;;;;;;13.13;1.55;;;;;;;;;;4944141;28;20578;-82
2022/01/08 01:03:16;;;;;;;6.13;0.85;;;;;;;;;;4942002;28;20074;-81
2022/01/08 01:05:42;;;;;;;2.78;1.98;;;;;;;;;;4944667;28;20038;-81
2022/01/08 01:08:08;;;;;;;4.68;1.60;;;;;;;;;;4943718;28;20030;-81
2022/01/08 01:10:34;;;;;;;6.13;1.67;;;;;;;;;;4939119;28;20027;-81
2022/01/08 01:13:00;;;;;;;6.15;1.92;;;;;;;;;;4937085;28;20046;-81
2022/01/08 01:15:26;;;;;;;8.38;2.13;;;;;;;;;;4936334;28;20033;-81
2022/01/08 01:17:52;;;;;;;4.53;1.08;;;;;;;;;;4958702;28;20034;-81
2022/01/08 01:20:20;;;;;;;5.53;1.73;;;;;;;;;;4939415;28;20041;-81
2022/01/08 01:25:26;;;;;;;8.68;2.10;;;;;;;;;;4960419;28;20031;-81
2022/01/08 01:30:28;;;;;;;7.25;2.03;;;;;;;;;;4963407;28;20082;-81
2022/01/08 01:41:31;;;;;;;2.83;1.65;;;;;;;;;;4960825;28;20050;-81
2022/01/08 01:49:18;;;;;;;7.28;1.55;;;;;;;;;;4947110;28;20438;-81
2022/01/08 01:51:44;;;;;;;1.05;0.95;;;;;;;;;;4927768;28;20049;-81
2022/01/08 01:54:10;;;;;;;6.30;2.25;;;;;;;;;;4923487;28;20677;-81
2022/01/08 01:56:37;;;;;;;9.15;2.50;;;;;;;;;;4919996;28;20039;-81
2022/01/08 01:59:03;;;;;;;7.68;2.22;;;;;;;;;;4926414;28;20114;-81
2022/01/08 02:01:29;;;;;;;3.00;1.55;;;;;;;;;;4945749;28;20027;-81
2022/01/08 02:03:56;;;;;;;7.18;1.98;;;;;;;;;;4923021;28;20515;-81
2022/01/08 02:06:22;;;;;;;6.00;1.60;;;;;;;;;;4925090;28;20132;-81
2022/01/08 02:08:48;;;;;;;0.95;0.80;;;;;;;;;;4924952;29;20055;-81
2022/01/08 02:11:17;;;;;;;3.38;1.58;;;;;;;;;;4922431;28;20369;-81
2022/01/08 02:13:43;;;;;;;3.75;1.95;;;;;;;;;;4922372;28;20387;-81
2022/01/08 02:16:16;;;;;;;6.80;2.10;;;;;;;;;;4926208;28;20620;-81
2022/01/08 02:18:43;;;;;;;4.07;2.00;;;;;;;;;;4919181;29;20408;-81
2022/01/08 02:21:09;;;;;;;6.68;2.03;;;;;;;;;;4919517;29;20574;-81
2022/01/08 02:23:35;;;;;;;2.25;1.85;;;;;;;;;;4926919;29;20753;-81
2022/01/08 02:26:05;;;;;;;2.65;1.33;;;;;;;;;;4921057;28;20032;-81
2022/01/08 02:28:31;;;;;;;10.48;2.67;;;;;;;;;;4942256;28;20028;-81
2022/01/08 02:30:58;;;;;;;8.35;2.05;;;;;;;;;;4925255;28;20040;-81
2022/01/08 02:33:24;;;;;;;3.75;1.48;;;;;;;;;;4928404;28;20028;-81
2022/01/08 02:35:51;;;;;;;3.17;1.63;;;;;;;;;;4921095;28;20035;-81
2022/01/08 02:38:17;;;;;;;4.35;2.47;;;;;;;;;;4922904;28;20039;-81
2022/01/08 02:40:52;;;;;;;5.95;2.30;;;;;;;;;;4925748;28;20070;-81
2022/01/08 02:43:18;;;;;;;7.18;2.58;;;;;;;;;;4922368;28;20499;-81
2022/01/08 02:45:44;;;;;;;6.85;2.08;;;;;;;;;;4928884;28;20475;-81
2022/01/08 02:48:10;;;;;;;7.13;1.98;;;;;;;;;;4921136;28;20063;-81
2022/01/08 02:50:36;;;;;;;3.90;1.90;;;;;;;;;;4929793;28;20507;-81
2022/01/08 02:53:02;;;;;;;14.73;2.35;;;;;;;;;;4920403;28;20028;-81
2022/01/08 02:55:28;;;;;;;3.30;2.05;;;;;;;;;;4925554;28;20033;-81
2022/01/08 02:57:54;;;;;;;3.60;1.20;;;;;;;;;;4931215;28;20501;-81
2022/01/08 03:00:21;;;;;;;1.60;1.08;;;;;;;;;;4920773;28;20609;-81
2022/01/08 03:02:48;;;;;;;1.10;0.52;;;;;;;;;;4924055;29;20026;-81
2022/01/08 03:05:15;;;;;;;6.22;1.80;;;;;;;;;;4921480;29;20023;-81
2022/01/08 03:07:41;;;;;;;3.58;1.60;;;;;;;;;;4918566;28;20126;-81
2022/01/08 03:10:10;;;;;;;6.82;1.20;;;;;;;;;;4922360;28;20503;-81
2022/01/08 03:12:46;;;;;;;0.82;0.43;;;;;;;;;;4919434;29;20127;-81
2022/01/08 03:15:14;;;;;;;2.85;1.20;;;;;;;;;;4919237;28;20645;-81
2022/01/08 03:17:41;;;;;;;2.47;1.23;;;;;;;;;;4927558;29;20031;-81
2022/01/08 03:20:11;;;;;;;4.47;1.42;;;;;;;;;;4931179;28;20039;-81
2022/01/08 03:22:38;;;;;;;7.93;1.60;;;;;;;;;;4934505;28;20110;-81
2022/01/08 03:25:04;;;;;;;9.57;1.65;;;;;;;;;;4920798;28;20027;-81
2022/01/08 03:27:30;;;;;;;2.67;1.48;;;;;;;;;;4921598;28;20119;-80
2022/01/08 03:29:57;;;;;;;8.52;1.70;;;;;;;;;;4926374;29;20035;-81
2022/01/08 03:32:23;;;;;;;3.13;1.50;;;;;;;;;;4917358;28;20039;-81
2022/01/08 03:34:49;;;;;;;5.70;1.73;;;;;;;;;;4939534;28;20036;-81
2022/01/08 03:37:15;;;;;;;5.25;1.50;;;;;;;;;;4918130;28;20427;-82
2022/01/08 03:39:42;;;;;;;3.00;1.38;;;;;;;;;;4908018;28;20915;-82
2022/01/08 03:42:08;;;;;;;6.90;1.73;;;;;;;;;;4913611;28;20028;-81
2022/01/08 03:44:34;;;;;;;11.07;2.20;;;;;;;;;;4916775;28;20035;-81
2022/01/08 03:49:46;;;;;;;6.45;1.27;;;;;;;;;;4949594;28;20397;-81
2022/01/08 03:52:19;;;;;;;8.80;1.67;;;;;;;;;;4957417;28;20049;-81
2022/01/08 03:54:45;;;;;;;4.15;1.42;;;;;;;;;;4938131;28;20042;-81
2022/01/08 03:57:11;;;;;;;2.92;1.50;;;;;;;;;;4942119;28;20026;-81
2022/01/08 03:59:37;;;;;;;8.18;1.45;;;;;;;;;;4931943;28;20607;-81
2022/01/08 04:02:04;;;;;;;3.50;1.30;;;;;;;;;;4954659;28;20027;-82
2022/01/08 04:04:30;;;;;;;4.35;1.30;;;;;;;;;;4951480;28;20534;-82
2022/01/08 04:06:56;;;;;;;2.88;1.10;;;;;;;;;;4950892;28;20089;-81
2022/01/08 04:09:22;;;;;;;2.85;0.77;;;;;;;;;;4956449;28;20082;-81
2022/01/08 04:11:48;;;;;;;5.05;1.60;;;;;;;;;;4952233;28;20034;-81
2022/01/08 04:14:16;;;;;;;5.68;0.98;;;;;;;;;;4939454;28;20419;-81
2022/01/08 04:16:46;;;;;;;5.95;1.13;;;;;;;;;;4934463;28;20031;-81
2022/01/08 04:19:12;;;;;;;4.15;1.65;;;;;;;;;;4959140;28;20122;-82
2022/01/08 04:24:23;;;;;;;9.68;1.45;;;;;;;;;;4956320;28;20038;-81
2022/01/08 04:26:49;;;;;;;10.57;1.25;;;;;;;;;;4942451;28;20106;-81
2022/01/08 04:29:15;;;;;;;1.25;0.80;;;;;;;;;;4937204;28;20124;-82
2022/01/08 04:31:41;;;;;;;7.28;1.15;;;;;;;;;;4959698;28;20522;-82
2022/01/08 04:34:07;;;;;;;7.95;1.35;;;;;;;;;;4938645;28;20026;-81
2022/01/08 04:36:40;;;;;;;4.97;0.95;;;;;;;;;;4939996;28;20036;-81
2022/01/08 04:39:07;;;;;;;2.83;0.68;;;;;;;;;;4937301;28;20023;-81
2022/01/08 04:41:33;;;;;;;3.03;1.27;;;;;;;;;;4945229;28;20058;-81
2022/01/08 04:43:59;;;;;;;3.65;1.58;;;;;;;;;;4942484;28;20035;-81
2022/01/08 04:46:25;;;;;;;2.17;1.02;;;;;;;;;;4941994;28;20034;-82
2022/01/08 04:48:51;;;;;;;2.38;0.70;;;;;;;;;;4935474;28;20043;-81
2022/01/08 04:51:17;;;;;;;4.50;1.35;;;;;;;;;;4935828;28;20515;-82
2022/01/08 04:53:43;;;;;;;7.55;2.17;;;;;;;;;;4951640;28;20031;-81
2022/01/08 04:56:09;;;;;;;7.55;1.42;;;;;;;;;;4956333;28;20521;-81
2022/01/08 04:58:35;;;;;;;11.40;1.88;;;;;;;;;;4937361;28;20121;-81
2022/01/08 05:01:01;;;;;;;1.15;0.80;;;;;;;;;;4938485;28;20027;-81
2022/01/08 05:03:27;;;;;;;3.00;1.77;;;;;;;;;;4939657;28;20034;-81
2022/01/08 05:05:53;;;;;;;8.77;1.83;;;;;;;;;;4934824;28;20039;-81
2022/01/08 05:08:19;;;;;;;7.78;1.75;;;;;;;;;;4944393;28;20042;-81
2022/01/08 05:10:45;;;;;;;3.72;1.25;;;;;;;;;;4939904;28;20280;-81
2022/01/08 05:13:11;;;;;;;3.55;0.93;;;;;;;;;;4937409;28;20053;-81
2022/01/08 05:15:38;;;;;;;2.53;1.27;;;;;;;;;;4943156;28;20518;-81
2022/01/08 05:18:06;;;;;;;3.40;1.05;;;;;;;;;;4953125;28;20027;-82
2022/01/08 05:20:35;;;;;;;11.27;1.73;;;;;;;;;;4938941;28;20106;-81
2022/01/08 05:23:02;;;;;;;4.07;0.95;;;;;;;;;;4939956;28;20542;-81
2022/01/08 05:25:29;;;;;;;3.33;1.13;;;;;;;;;;4937351;28;20114;-81
2022/01/08 05:27:56;;;;;;;2.85;0.95;;;;;;;;;;4950998;28;20027;-81
2022/01/08 05:30:23;;;;;;;3.50;1.75;;;;;;;;;;4940296;28;20679;-81
2022/01/08 05:32:49;;;;;;;6.15;1.88;;;;;;;;;;4938302;28;20476;-81
2022/01/08 05:35:16;;;;;;;8.48;1.73;;;;;;;;;;4945088;28;20035;-81
2022/01/08 05:37:42;;;;;;;6.40;1.63;;;;;;;;;;4953195;28;20043;-84
2022/01/08 05:40:08;;;;;;;9.85;1.58;;;;;;;;;;4938370;28;20437;-84
2022/01/08 05:42:35;;;;;;;9.18;1.35;;;;;;;;;;4936135;28;20023;-84
2022/01/08 05:45:01;;;;;;;10.35;1.13;;;;;;;;;;4946420;28;20031;-84
2022/01/08 05:47:30;;;;;;;4.50;1.13;;;;;;;;;;4943853;28;20039;-84
2022/01/08 05:49:56;;;;;;;3.13;1.52;;;;;;;;;;4939521;28;20055;-83
2022/01/08 05:52:22;;;;;;;5.85;1.50;;;;;;;;;;4940402;28;23488;-84
2022/01/08 05:54:48;;;;;;;1.00;0.55;;;;;;;;;;4952880;28;20038;-84
2022/01/08 05:57:14;;;;;;;9.63;1.33;;;;;;;;;;4946352;28;20027;-84
2022/01/08 05:59:40;;;;;;;13.95;1.30;;;;;;;;;;4933604;28;20035;-83
2022/01/08 06:02:09;;;;;;;8.20;1.95;;;;;;;;;;4945333;28;20506;-83
2022/01/08 06:04:35;;;;;;;4.97;1.10;;;;;;;;;;4939653;28;20668;-83
2022/01/08 06:07:01;;;;;;;3.65;1.42;;;;;;;;;;4934731;28;20042;-83
2022/01/08 06:09:27;;;;;;;4.47;1.20;;;;;;;;;;4943486;28;20027;-83
2022/01/08 06:11:53;;;;;;;9.57;2.00;;;;;;;;;;4943219;28;20042;-84
2022/01/08 06:14:19;;;;;;;7.18;2.08;;;;;;;;;;4946931;28;20407;-84
2022/01/08 06:16:45;;;;;;;7.47;1.83;;;;;;;;;;4939834;28;20042;-83
2022/01/08 06:19:12;;;;;;;5.18;1.58;;;;;;;;;;4943800;28;20031;-83
2022/01/08 06:21:38;;;;;;;1.80;1.45;;;;;;;;;;4952794;28;20112;-84
2022/01/08 06:24:04;;;;;;;11.98;1.90;;;;;;;;;;4961252;28;20031;-84
2022/01/08 06:26:30;;;;;;;7.75;1.80;;;;;;;;;;4939083;28;20038;-83
2022/01/08 06:28:56;;;;;;;6.68;1.90;;;;;;;;;;4950070;28;20493;-84
2022/01/08 06:31:23;;;;;;;9.82;1.83;;;;;;;;;;4941187;28;20047;-83
2022/01/08 06:33:50;;;;;;;6.47;2.10;;;;;;;;;;4939835;28;20039;-84
2022/01/08 06:36:19;;;;;;;17.20;3.63;;;;;;;;;;4942374;28;20058;-84
2022/01/08 06:38:46;;;;;;;14.70;2.40;;;;;;;;;;4940967;28;20125;-84
2022/01/08 06:41:12;;;;;;;12.45;3.28;;;;;;;;;;4943212;28;20038;-84
2022/01/08 06:43:38;;;;;;;6.75;2.17;;;;;;;;;;4956639;28;20031;-84
2022/01/08 06:46:04;;;;;;;6.15;1.70;;;;;;;;;;4942088;28;20030;-84
2022/01/08 06:48:30;;;;;;;5.70;2.25;;;;;;;;;;4941746;28;20054;-84
2022/01/08 06:50:56;;;;;;;9.63;1.98;;;;;;;;;;4950808;28;20529;-83
2022/01/08 06:53:22;;;;;;;15.73;3.00;;;;;;;;;;4962565;28;20031;-83
2022/01/08 06:55:48;;;;;;;12.63;2.90;;;;;;;;;;4938284;28;20069;-83
2022/01/08 06:58:14;;;;;;;11.23;3.38;;;;;;;;;;4943767;28;20471;-83
2022/01/08 07:00:41;;;;;;;21.13;6.55;;;;;;;;;;4942411;28;20061;-83
2022/01/08 07:03:10;;;;;;;33.38;9.63;;;;;;;;;;4942333;28;20030;-84
2022/01/08 07:05:39;;;;;;;12.75;3.58;;;;;;;;;;4947593;28;20029;-83
2022/01/08 07:08:05;;;;;;;9.70;3.22;;;;;;;;;;4944438;28;20672;-83
2022/01/08 07:10:31;;;;;;;9.73;3.42;;;;;;;;;;4938377;28;20038;-84
2022/01/08 07:12:57;;;;;;;15.25;3.97;;;;;;;;;;4938854;28;20049;-83
2022/01/08 07:15:23;;;;;;;9.00;2.97;;;;;;;;;;4940892;28;20499;-83
2022/01/08 07:17:50;;;;;;;11.80;3.53;;;;;;;;;;4948832;28;20038;-83
2022/01/08 07:20:16;;;;;;;9.82;3.90;;;;;;;;;;4944092;28;20513;-84
2022/01/08 07:22:42;;;;;;;18.92;3.22;;;;;;;;;;4939596;28;20035;-84
2022/01/08 07:25:09;;;;;;;14.02;2.50;;;;;;;;;;4936879;28;20034;-84
2022/01/08 07:27:36;;;;;;;3.33;2.00;;;;;;;;;;4948976;28;20019;-83
2022/01/08 07:30:03;;;;;;;16.63;3.67;;;;;;;;;;4955984;28;20118;-84
2022/01/08 07:32:30;;;;;;;10.52;3.67;;;;;;;;;;4941261;28;20039;-84
2022/01/08 07:34:56;;;;;;;7.30;2.58;;;;;;;;;;4941314;28;20061;-84
2022/01/08 07:37:22;;;;;;;13.48;4.38;;;;;;;;;;4939652;28;20340;-84
2022/01/08 07:39:48;;;;;;;12.73;1.75;;;;;;;;;;4939689;28;20414;-84
2022/01/08 07:42:14;;;;;;;15.00;3.60;;;;;;;;;;4941626;28;20035;-84
2022/01/08 07:44:40;;;;;;;18.17;3.88;;;;;;;;;;4942695;28;20096;-84
2022/01/08 07:47:07;;;;;;;9.75;3.45;;;;;;;;;;4935422;28;20019;-83
2022/01/08 07:49:33;;;;;;;16.90;4.18;;;;;;;;;;4941628;28;20599;-84
2022/01/08 07:51:59;;;;;;;11.25;3.25;;;;;;;;;;4953938;28;20170;-84
2022/01/08 07:54:25;;;;;;;18.08;4.22;;;;;;;;;;4940116;28;20366;-83
2022/01/08 07:56:52;;;;;;;11.75;3.90;;;;;;;;;;4944837;28;20119;-83
2022/01/08 07:59:18;;;;;;;13.43;3.67;;;;;;;;;;4930459;28;20490;-83
2022/01/08 08:01:44;;;;;;;11.23;3.63;;;;;;;;;;4938764;28;21057;-83
2022/01/08 08:04:10;;;;;;;9.00;2.92;;;;;;;;;;4933324;28;20043;-83
2022/01/08 08:06:47;;;;;;;12.95;3.95;;;;;;;;;;4943415;28;20031;-84
2022/01/08 08:09:13;;;;;;;16.88;4.57;;;;;;;;;;4931316;28;20023;-83
2022/01/08 08:11:39;;;;;;;7.20;2.35;;;;;;;;;;4942404;28;20047;-83
2022/01/08 08:14:05;;;;;;;6.95;3.22;;;;;;;;;;4934442;28;20422;-84
2022/01/08 08:16:31;;;;;;;10.02;4.63;;;;;;;;;;4934609;28;20050;-83
2022/01/08 08:18:57;;;;;;;8.93;2.75;;;;;;;;;;4933808;28;20481;-83
2022/01/08 08:21:23;;;;;;;20.00;3.25;;;;;;;;;;4935281;28;20050;-83
2022/01/08 08:23:49;;;;;;;13.35;3.25;;;;;;;;;;4942118;28;20387;-83
2022/01/08 08:26:15;;;;;;;14.13;3.38;;;;;;;;;;4936728;28;20585;-83
2022/01/08 08:28:44;;;;;;;12.77;3.08;;;;;;;;;;4936454;28;20038;-83
2022/01/08 08:31:11;;;;;;;31.35;3.15;;;;;;;;;;4935459;28;20106;-83
2022/01/08 08:33:38;;;;;;;14.13;2.70;;;;;;;;;;4939648;28;20043;-83
2022/01/08 08:36:04;;;;;;;8.50;2.38;;;;;;;;;;4951311;28;20047;-83
2022/01/08 08:38:30;;;;;;;7.93;3.20;;;;;;;;;;4940270;28;20364;-84
2022/01/08 08:40:56;;;;;;;3.53;1.33;;;;;;;;;;4940362;28;20678;-83
2022/01/08 08:43:22;;;;;;;9.07;2.72;;;;;;;;;;4943933;28;20047;-83
2022/01/08 08:45:49;;;;;;;11.43;3.75;;;;;;;;;;4936610;28;20074;-84
2022/01/08 08:48:15;;;;;;;11.80;2.50;;;;;;;;;;4937303;28;20110;-83
2022/01/08 08:50:42;;;;;;;20.50;3.28;;;;;;;;;;4944182;28;20137;-84
2022/01/08 08:53:08;;;;;;;10.63;3.55;;;;;;;;;;4937777;28;20505;-83
2022/01/08 08:55:34;;;;;;;18.48;3.13;;;;;;;;;;4942081;28;20125;-83
2022/01/08 08:58:00;;;;;;;1.73;1.15;;;;;;;;;;4935254;28;20027;-83
2022/01/08 09:00:26;;;;;;;14.70;2.90;;;;;;;;;;4940159;28;20031;-84
2022/01/08 09:02:52;;;;;;;8.48;2.30;;;;;;;;;;4953733;28;20037;-83
2022/01/08 09:05:18;;;;;;;6.60;3.10;;;;;;;;;;4955633;28;20030;-83
2022/01/08 09:07:44;;;;;;;7.32;2.33;;;;;;;;;;4929759;28;20118;-83
2022/01/08 09:10:10;;;;;;;16.52;3.38;;;;;;;;;;4942500;28;20091;-84
2022/01/08 09:12:40;;;;;;;6.35;1.92;;;;;;;;;;4946891;28;20031;-83
2022/01/08 09:15:07;;;;;;;8.27;2.72;;;;;;;;;;4935907;28;20039;-83
2022/01/08 09:17:34;;;;;;;7.90;2.13;;;;;;;;;;4957913;28;20542;-83
2022/01/08 09:20:00;;;;;;;7.32;3.03;;;;;;;;;;4941121;28;20285;-83
2022/01/08 09:22:26;;;;;;;10.77;3.42;;;;;;;;;;4938573;28;20471;-84
2022/01/08 09:24:54;;;;;;;17.73;3.72;;;;;;;;;;4942125;28;20028;-84
2022/01/08 09:27:21;;;;;;;9.15;2.13;;;;;;;;;;4940430;28;20042;-83
2022/01/08 09:29:47;;;;;;;12.85;3.47;;;;;;;;;;4939357;28;20034;-83
2022/01/08 09:32:17;;;;;;;12.02;3.40;;;;;;;;;;4943603;28;20039;-83
2022/01/08 09:34:44;;;;;;;12.23;3.22;;;;;;;;;;4938723;28;20031;-83
2022/01/08 09:37:17;;;;;;;10.00;2.95;;;;;;;;;;4937252;28;20500;-84
2022/01/08 09:39:43;;;;;;;12.27;2.80;;;;;;;;;;4944673;28;20131;-84
2022/01/08 09:42:12;;;;;;;13.10;3.13;;;;;;;;;;4955319;28;20101;-84
2022/01/08 09:44:39;;;;;;;8.15;3.42;;;;;;;;;;4964783;28;20022;-84
2022/01/08 09:47:06;;;;;;;14.82;3.58;;;;;;;;;;4939054;28;20402;-84
2022/01/08 09:49:33;;;;;;;19.70;2.85;;;;;;;;;;4945109;28;20499;-84
2022/01/08 09:52:00;;;;;;;7.55;1.83;;;;;;;;;;4937748;28;20047;-84
2022/01/08 09:54:27;;;;;;;11.48;2.75;;;;;;;;;;4959761;28;20082;-84
2022/01/08 09:56:53;;;;;;;9.15;3.08;;;;;;;;;;4942631;28;20058;-84
2022/01/08 09:59:21;;;;;;;11.13;2.85;;;;;;;;;;4956446;28;20750;-84
2022/01/08 10:01:54;;;;;;;9.25;2.83;;;;;;;;;;4957210;28;20539;-84
2022/01/08 10:04:24;;;;;;;10.57;2.55;;;;;;;;;;4939566;28;20023;-84
2022/01/08 10:06:51;;;;;;;7.90;2.63;;;;;;;;;;4947199;28;20045;-84
2022/01/08 10:09:16;;;;;;;11.73;2.85;;;;;;;;;;4946354;28;20566;-84
2022/01/08 10:11:49;;;;;;;11.27;3.08;;;;;;;;;;4940419;28;20034;-84
2022/01/08 10:14:28;;;;;;;11.90;2.70;;;;;;;;;;4950213;28;20435;-84
2022/01/08 10:19:40;;;;;;;6.55;2.30;;;;;;;;;;4960490;28;20392;-85
2022/01/08 10:22:19;;;;;;;9.80;2.47;;;;;;;;;;4942034;28;20478;-84
2022/01/08 10:24:45;;;;;;;10.60;3.53;;;;;;;;;;4946275;28;20035;-84
2022/01/08 10:27:11;;;;;;;11.43;3.47;;;;;;;;;;4943786;28;20043;-85
2022/01/08 10:29:44;;;;;;;12.43;2.95;;;;;;;;;;4943161;28;20042;-84
2022/01/08 10:32:11;;;;;;;9.55;2.60;;;;;;;;;;4944880;28;20027;-84
2022/01/08 10:34:38;;;;;;;9.38;2.28;;;;;;;;;;4954039;28;20426;-84
2022/01/08 10:37:05;;;;;;;16.23;3.13;;;;;;;;;;4959877;28;20055;-85
2022/01/08 10:39:39;;;;;;;10.25;3.53;;;;;;;;;;4933751;28;20121;-84
2022/01/08 10:42:12;;;;;;;7.85;2.53;;;;;;;;;;4945618;28;20653;-85
2022/01/08 10:44:38;;;;;;;12.55;3.05;;;;;;;;;;4956773;28;20038;-84
2022/01/08 10:47:05;;;;;;;8.18;2.60;;;;;;;;;;4947009;28;20042;-84
2022/01/08 10:49:49;;;;;;;12.85;3.38;;;;;;;;;;4948365;28;20029;-84
2022/01/08 10:52:16;;;;;;;15.50;3.22;;;;;;;;;;4950822;28;20047;-84
2022/01/08 10:54:43;;;;;;;8.45;3.28;;;;;;;;;;4939713;28;20042;-84
2022/01/08 10:57:12;;;;;;;8.63;1.85;;;;;;;;;;4946790;28;20582;-83
2022/01/08 10:59:38;;;;;;;12.30;2.88;;;;;;;;;;4937328;28;20503;-84
2022/01/08 11:02:04;;;;;;;13.45;3.17;;;;;;;;;;4933233;28;20033;-84
2022/01/08 11:04:48;;;;;;;10.90;3.40;;;;;;;;;;4956885;28;20395;-83
2022/01/08 11:07:16;;;;;;;1.98;1.23;;;;;;;;;;4943587;28;20031;-85
2022/01/08 11:09:43;;;;;;;15.48;4.15;;;;;;;;;;4961423;28;20159;-84
2022/01/08 11:12:13;;;;;;;6.57;2.80;;;;;;;;;;4940659;28;20059;-83
2022/01/08 11:17:15;;;;;;;;;;;;;;;;;;4959934;28;20038;-84
2022/01/08 11:19:43;;;;;;;7.38;3.03;;;;;;;;;;4941242;28;20408;-83
2022/01/08 11:22:11;;;;;;;6.30;1.88;;;;;;;;;;4950606;28;20510;-84
2022/01/08 11:24:39;;;;;;;10.88;3.80;;;;;;;;;;4945418;28;20545;-84
2022/01/08 11:27:07;;;;;;;7.10;2.97;;;;;;;;;;4944726;28;20440;-84
2022/01/08 11:29:35;;;;;;;14.02;3.97;;;;;;;;;;4942563;28;20117;-84
2022/01/08 11:32:03;;;;;;;13.40;3.35;;;;;;;;;;4964818;28;20611;-84
2022/01/08 11:34:29;;;;;;;6.80;2.17;;;;;;;;;;4958698;28;20530;-84
2022/01/08 11:36:56;;;;;;;15.68;3.70;;;;;;;;;;4959626;28;20038;-84
2022/01/08 11:39:27;;;;;;;13.30;4.07;;;;;;;;;;4955901;28;20034;-84
2022/01/08 11:41:53;;;;;;;9.52;4.00;;;;;;;;;;4956578;28;20467;-85
2022/01/08 11:44:20;;;;;;;5.35;2.42;;;;;;;;;;4943667;28;20130;-84
2022/01/08 11:46:46;;;;;;;9.90;2.10;;;;;;;;;;4938644;28;20035;-84
2022/01/08 11:49:14;;;;;;;10.35;4.60;;;;;;;;;;4958871;28;20083;-84
2022/01/08 11:51:53;;;;;;;4.43;2.38;;;;;;;;;;4946173;28;20042;-84
2022/01/08 11:54:19;;;;;;;10.23;3.50;;;;;;;;;;4947254;28;20031;-84
2022/01/08 11:56:45;;;;;;;9.55;4.10;;;;;;;;;;4943530;28;20030;-84
2022/01/08 11:59:15;;;;;;;12.70;4.95;;;;;;;;;;4943282;28;20419;-84
2022/01/08 12:02:01;;;;;;;12.82;3.53;;;;;;;;;;4949890;28;20463;-84
2022/01/08 12:04:28;;;;;;;20.17;3.78;;;;;;;;;;4942484;28;20023;-84
2022/01/08 12:06:55;;;;;;;12.20;2.53;;;;;;;;;;4950898;28;20033;-84
2022/01/08 12:09:25;;;;;;;10.73;5.18;;;;;;;;;;4942228;28;21355;-84
2022/01/08 12:11:53;;;;;;;6.72;2.65;;;;;;;;;;4944508;28;20038;-85
2022/01/08 12:14:20;;;;;;;10.27;3.95;;;;;;;;;;4936503;28;20469;-84
2022/01/08 12:16:47;;;;;;;13.10;3.20;;;;;;;;;;4943677;28;20431;-85
2022/01/08 12:19:32;;;;;;;9.32;3.30;;;;;;;;;;4942646;28;20490;-85
2022/01/08 12:21:59;;;;;;;13.57;4.80;;;;;;;;;;4938588;28;20410;-85
2022/01/08 12:24:28;;;;;;;10.05;3.45;;;;;;;;;;4942963;28;20403;-84
2022/01/08 12:26:55;;;;;;;21.40;4.05;;;;;;;;;;4940058;28;20517;-85
2022/01/08 12:29:41;;;;;;;12.07;4.65;;;;;;;;;;4942377;28;20066;-84
2022/01/08 12:32:29;;;;;;;11.90;5.05;;;;;;;;;;4941815;28;20505;-84
2022/01/08 12:35:02;;;;;;;6.03;2.38;;;;;;;;;;4951114;28;20031;-84
2022/01/08 12:37:38;;;;;;;9.82;4.70;;;;;;;;;;4947547;28;20034;-85
2022/01/08 12:40:06;;;;;;;5.85;2.65;;;;;;;;;;4941856;28;20593;-85
2022/01/08 12:42:33;;;;;;;9.35;3.95;;;;;;;;;;4942830;28;20465;-84
2022/01/08 12:45:20;;;;;;;12.85;4.85;;;;;;;;;;4955482;28;20038;-84
2022/01/08 12:47:51;;;;;;;24.27;7.38;;;;;;;;;;4956232;28;20023;-84
2022/01/08 12:50:37;;;;;;;6.07;3.22;;;;;;;;;;4944076;28;20475;-84
2022/01/08 12:53:06;;;;;;;5.28;3.60;;;;;;;;;;4954894;28;20062;-85
2022/01/08 12:55:33;;;;;;;12.77;5.65;;;;;;;;;;4944859;28;20058;-84
2022/01/08 12:57:59;;;;;;;18.08;7.70;;;;;;;;;;4954067;28;20046;-84
2022/01/08 13:00:26;;;;;;;15.18;7.00;;;;;;;;;;4939748;28;20495;-85
2022/01/08 13:02:52;;;;;;;13.60;6.65;;;;;;;;;;4951043;28;20547;-85
2022/01/08 13:05:18;;;;;;;15.90;6.38;;;;;;;;;;4958271;28;20111;-85
2022/01/08 13:07:51;;;;;;;20.25;8.82;;;;;;;;;;4951614;28;20038;-85
2022/01/08 13:10:18;;;;;;;9.88;4.15;;;;;;;;;;4940425;28;23138;-84
2022/01/08 13:12:44;;;;;;;15.88;6.47;;;;;;;;;;4954218;28;20043;-85
2022/01/08 13:15:11;;;;;;;17.38;7.82;;;;;;;;;;4936662;28;20035;-84
2022/01/08 13:17:37;;;;;;;11.50;6.20;;;;;;;;;;4940474;28;20046;-84
2022/01/08 13:20:07;;;;;;;12.02;6.82;;;;;;;;;;4938281;28;20038;-84
2022/01/08 13:22:34;;;;;;;18.80;6.40;;;;;;;;;;4941376;28;20035;-84
2022/01/08 13:25:00;;;;;;;10.15;5.75;;;;;;;;;;4939423;28;20035;-85
2022/01/08 13:27:27;;;;;;;23.73;8.02;;;;;;;;;;4961739;28;20035;-84
2022/01/08 13:29:54;;;;;;;18.95;8.35;;;;;;;;;;4951378;28;20035;-85
2022/01/08 13:32:21;;;;;;;20.20;10.48;;;;;;;;;;4944834;28;20442;-85
2022/01/08 13:34:49;;;;;;;17.00;8.43;;;;;;;;;;4959002;28;20480;-85
2022/01/08 13:37:14;;;;;;;29.67;8.15;;;;;;;;;;4940046;28;20031;-84
2022/01/08 13:39:41;;;;;;;10.43;5.22;;;;;;;;;;4950129;28;20031;-84
2022/01/08 13:42:10;;;;;;;13.15;5.40;;;;;;;;;;4944798;28;20038;-85
2022/01/08 13:44:37;;;;;;;15.65;7.47;;;;;;;;;;4957636;28;20435;-84
2022/01/08 13:47:03;;;;;;;20.58;7.82;;;;;;;;;;4938969;28;20045;-85
2022/01/08 13:49:30;;;;;;;20.00;8.82;;;;;;;;;;4948093;28;20047;-85
2022/01/08 13:51:56;;;;;;;20.85;7.47;;;;;;;;;;4942568;28;20614;-84
2022/01/08 13:54:32;;;;;;;22.75;9.90;;;;;;;;;;4939496;28;20574;-84
2022/01/08 13:57:10;;;;;;;14.50;8.35;;;;;;;;;;4959370;28;20041;-84
2022/01/08 13:59:36;;;;;;;23.10;8.63;;;;;;;;;;4954488;28;20089;-84
2022/01/08 14:02:02;;;;;;;15.77;6.15;;;;;;;;;;4945344;28;20057;-84
2022/01/08 14:04:29;;;;;;;16.95;9.20;;;;;;;;;;4937094;28;20034;-84
2022/01/08 14:06:57;;;;;;;16.10;8.75;;;;;;;;;;4950908;28;20368;-85
2022/01/08 14:09:23;;;;;;;13.63;7.65;;;;;;;;;;4954691;28;20560;-85
2022/01/08 14:11:49;;;;;;;11.25;5.97;;;;;;;;;;4960464;28;20035;-82
2022/01/08 14:14:19;;;;;;;11.07;6.15;;;;;;;;;;4939412;28;20046;-83
2022/01/08 14:16:45;;;;;;;27.80;10.55;;;;;;;;;;4947323;28;20316;-82
2022/01/08 14:19:11;;;;;;;21.63;7.20;;;;;;;;;;4947043;28;20047;-82
2022/01/08 14:21:41;;;;;;;26.88;9.20;;;;;;;;;;4937784;28;20070;-83
2022/01/08 14:24:15;;;;;;;16.48;7.53;;;;;;;;;;4942806;28;20035;-83
2022/01/08 14:26:41;;;;;;;23.25;10.52;;;;;;;;;;4942024;28;20448;-83
2022/01/08 14:29:12;;;;;;;11.05;6.45;;;;;;;;;;4942722;28;20070;-83
2022/01/08 14:31:38;;;;;;;15.27;6.47;;;;;;;;;;4939514;28;20150;-84
2022/01/08 14:34:06;;;;;;;11.68;6.25;;;;;;;;;;4949576;28;20125;-84
2022/01/08 14:36:51;;;;;;;12.63;6.68;;;;;;;;;;4944754;28;20035;-83
2022/01/08 14:39:33;;;;;;;11.40;6.80;;;;;;;;;;4944412;28;20037;-83
2022/01/08 14:42:00;;;;;;;19.98;7.32;;;;;;;;;;4938962;28;20062;-83
2022/01/08 14:44:26;;;;;;;12.65;4.78;;;;;;;;;;4939363;28;20035;-83
2022/01/08 14:46:53;;;;;;;19.88;6.88;;;;;;;;;;4943317;28;20038;-83
2022/01/08 14:49:19;;;;;;;13.05;7.20;;;;;;;;;;4939181;28;20410;-83
2022/01/08 14:51:45;;;;;;;24.40;8.38;;;;;;;;;;4945962;28;20031;-83
2022/01/08 14:54:11;;;;;;;14.80;5.65;;;;;;;;;;4952945;28;20050;-83
2022/01/08 14:56:38;;;;;;;23.90;9.55;;;;;;;;;;4941217;28;20034;-82
2022/01/08 14:59:04;;;;;;;13.70;5.70;;;;;;;;;;4957107;28;20054;-83
2022/01/08 15:01:30;;;;;;;14.05;5.38;;;;;;;;;;4953694;28;20038;-82
2022/01/08 15:03:58;;;;;;;15.70;6.32;;;;;;;;;;4949773;28;20026;-83
2022/01/08 15:06:24;;;;;;;20.52;7.93;;;;;;;;;;4954176;28;20034;-82
2022/01/08 15:08:50;;;;;;;18.30;7.68;;;;;;;;;;4947218;28;20031;-81
2022/01/08 15:11:16;;;;;;;12.45;5.60;;;;;;;;;;4938688;28;20414;-82